Time;durP1;ratioP1;P1;durP2;ratioP2;P2;SDS_P1;SDS_P2;PMS_P1;PMS_P2;Temp;Humidity;BMP_temperature;BMP_pressure;BME280_temperature;BME280_humidity;BME280_pressure;Samples;Min_cycle;Max_cycle;Signal;HPM_P1;HPM_P2
2023/01/15 00:01:45;;;;;;;9.57;2.10;;;6.50;99.90;;;;;;7363985;19;20883;-62
2023/01/15 00:04:12;;;;;;;10.40;2.30;;;6.50;99.90;;;;;;7362073;19;20493;-60
2023/01/15 00:06:41;;;;;;;15.15;3.03;;;6.50;99.90;;;;;;7361958;19;20022;-60
2023/01/15 00:09:12;;;;;;;9.35;2.33;;;6.50;99.90;;;;;;7361681;19;20025;-62
2023/01/15 00:11:38;;;;;;;12.10;2.20;;;6.50;99.90;;;;;;7363679;19;20020;-62
2023/01/15 00:14:05;;;;;;;10.57;2.13;;;6.40;99.90;;;;;;7359941;19;20681;-60
2023/01/15 00:16:31;;;;;;;11.23;2.17;;;6.40;99.90;;;;;;7362102;19;20094;-60
2023/01/15 00:19:00;;;;;;;9.55;2.15;;;6.40;99.90;;;;;;7364172;19;20007;-60
2023/01/15 00:21:27;;;;;;;10.85;2.28;;;6.40;99.90;;;;;;7361236;19;20405;-60
2023/01/15 00:29:25;;;;;;;14.45;2.47;;;6.40;99.90;;;;;;7361377;19;20863;-62
2023/01/15 00:32:01;;;;;;;12.10;1.90;;;6.40;99.90;;;;;;7360734;19;20093;-62
2023/01/15 00:34:29;;;;;;;10.30;2.03;;;6.40;99.90;;;;;;7363007;19;20026;-60
2023/01/15 00:36:56;;;;;;;10.80;2.45;;;6.40;99.90;;;;;;7360616;19;20018;-63
2023/01/15 00:39:23;;;;;;;13.35;2.65;;;6.40;99.90;;;;;;7361552;19;20018;-60
2023/01/15 00:41:50;;;;;;;13.18;2.55;;;6.50;99.90;;;;;;7360583;19;20047;-60
2023/01/15 00:44:16;;;;;;;12.45;2.67;;;6.50;99.90;;;;;;7360916;19;20081;-60
2023/01/15 00:46:46;;;;;;;9.70;2.20;;;6.40;99.90;;;;;;7360516;19;20026;-60
2023/01/15 00:49:17;;;;;;;11.23;2.53;;;6.40;99.90;;;;;;7360633;19;20018;-60
2023/01/15 00:51:43;;;;;;;14.23;2.60;;;6.50;99.90;;;;;;7362047;19;20504;-60
2023/01/15 00:54:10;;;;;;;15.35;2.35;;;6.50;99.90;;;;;;7358947;19;20014;-60
2023/01/15 00:56:36;;;;;;;17.02;2.65;;;6.40;99.90;;;;;;7360415;19;20015;-60
2023/01/15 00:59:04;;;;;;;17.20;2.47;;;6.40;99.90;;;;;;7362045;19;20010;-61
2023/01/15 01:01:31;;;;;;;12.80;2.25;;;6.40;99.90;;;;;;7364620;19;20015;-60
2023/01/15 01:03:57;;;;;;;11.90;2.00;;;6.40;99.90;;;;;;7358316;19;20108;-60
2023/01/15 01:06:25;;;;;;;7.80;1.77;;;6.40;99.90;;;;;;7367819;19;20130;-60
2023/01/15 01:08:52;;;;;;;14.02;2.47;;;6.40;99.90;;;;;;7361990;19;20014;-60
2023/01/15 01:11:22;;;;;;;11.40;2.17;;;6.40;99.90;;;;;;7367265;19;20018;-60
2023/01/15 01:13:55;;;;;;;11.95;1.95;;;6.40;99.90;;;;;;7371116;19;20047;-60
2023/01/15 01:16:25;;;;;;;10.63;2.25;;;6.40;99.90;;;;;;7366948;19;20468;-62
2023/01/15 01:19:02;;;;;;;11.80;2.60;;;6.40;99.90;;;;;;7371256;19;20017;-62
2023/01/15 01:21:29;;;;;;;12.25;2.35;;;6.40;99.90;;;;;;7369982;19;20433;-63
2023/01/15 01:24:00;;;;;;;13.00;2.47;;;6.40;99.90;;;;;;7371172;19;20485;-61
2023/01/15 01:26:27;;;;;;;10.75;2.72;;;6.40;99.90;;;;;;7367050;19;20022;-62
2023/01/15 01:28:56;;;;;;;16.45;2.67;;;6.50;99.90;;;;;;7368446;19;20014;-62
2023/01/15 01:31:26;;;;;;;12.00;1.92;;;6.40;99.90;;;;;;7369549;19;20018;-63
2023/01/15 01:33:54;;;;;;;16.85;2.75;;;6.40;99.90;;;;;;7369158;19;20590;-61
2023/01/15 01:36:26;;;;;;;13.40;2.30;;;6.40;99.90;;;;;;7368675;19;20037;-61
2023/01/15 01:38:58;;;;;;;10.23;2.20;;;6.40;99.90;;;;;;7368518;19;20042;-62
2023/01/15 01:41:27;;;;;;;13.32;3.15;;;6.40;99.90;;;;;;7367808;19;20381;-61
2023/01/15 01:43:56;;;;;;;10.52;2.42;;;6.40;99.90;;;;;;7366490;19;20089;-62
2023/01/15 01:46:30;;;;;;;10.20;2.67;;;6.40;99.90;;;;;;7370204;19;20497;-62
2023/01/15 01:49:07;;;;;;;13.07;3.00;;;6.40;99.90;;;;;;7365088;19;20430;-62
2023/01/15 01:51:42;;;;;;;9.98;2.63;;;6.40;99.90;;;;;;7366433;19;20085;-62
2023/01/15 01:54:15;;;;;;;11.23;2.25;;;6.40;99.90;;;;;;7364204;19;20007;-62
2023/01/15 01:56:42;;;;;;;12.25;2.13;;;6.40;99.90;;;;;;7370727;19;20873;-62
2023/01/15 01:59:09;;;;;;;9.50;2.00;;;6.40;99.90;;;;;;7366836;19;20023;-62
2023/01/15 02:01:35;;;;;;;12.32;2.58;;;6.40;99.90;;;;;;7369658;19;20760;-60
2023/01/15 02:04:05;;;;;;;14.45;2.33;;;6.40;99.90;;;;;;7362094;19;20377;-60
2023/01/15 02:06:35;;;;;;;12.10;3.35;;;6.40;99.90;;;;;;7366240;19;20006;-60
2023/01/15 02:09:02;;;;;;;15.60;3.08;;;6.40;99.90;;;;;;7363216;19;20082;-62
2023/01/15 02:11:30;;;;;;;10.38;2.58;;;6.40;99.90;;;;;;7368468;19;20014;-60
2023/01/15 02:14:11;;;;;;;11.00;2.35;;;6.40;99.90;;;;;;7367642;19;20580;-61
2023/01/15 02:16:47;;;;;;;12.35;2.47;;;6.40;99.90;;;;;;7366623;19;20014;-60
2023/01/15 02:19:45;;;;;;;6.78;1.73;;;6.30;99.90;;;;;;7368902;19;20468;-60
2023/01/15 02:22:39;;;;;;;13.35;3.20;;;6.30;99.90;;;;;;7368253;19;20007;-61
2023/01/15 02:25:18;;;;;;;14.70;2.42;;;6.30;99.90;;;;;;7365622;19;20022;-62
2023/01/15 02:27:58;;;;;;;15.15;2.58;;;6.30;99.90;;;;;;7369695;19;20423;-60
2023/01/15 02:30:38;;;;;;;13.18;3.20;;;6.40;99.90;;;;;;7367819;19;20034;-61
2023/01/15 02:33:27;;;;;;;11.80;2.63;;;6.40;99.90;;;;;;7366268;19;20032;-60
2023/01/15 02:35:59;;;;;;;9.27;2.47;;;6.30;99.90;;;;;;7365815;19;20034;-60
2023/01/15 02:38:35;;;;;;;15.75;2.50;;;6.40;99.90;;;;;;7367484;19;20509;-60
2023/01/15 02:41:04;;;;;;;17.00;3.30;;;6.40;99.90;;;;;;7365764;19;20029;-60
2023/01/15 02:43:38;;;;;;;13.50;3.28;;;6.40;99.90;;;;;;7360076;19;20705;-62
2023/01/15 02:46:06;;;;;;;15.20;2.95;;;6.40;99.90;;;;;;7363304;19;20622;-62
2023/01/15 02:48:37;;;;;;;10.35;2.20;;;6.40;99.90;;;;;;7365692;19;20026;-62
2023/01/15 02:51:11;;;;;;;12.70;2.47;;;6.40;99.90;;;;;;7364818;19;20448;-63
2023/01/15 02:53:43;;;;;;;11.38;2.70;;;6.30;99.90;;;;;;7364287;19;20537;-60
2023/01/15 02:56:14;;;;;;;11.03;1.97;;;6.30;99.90;;;;;;7362915;19;20026;-60
2023/01/15 02:58:48;;;;;;;12.35;2.65;;;6.30;99.90;;;;;;7363464;19;20274;-62
2023/01/15 03:01:40;;;;;;;13.13;2.47;;;6.30;99.90;;;;;;7364877;19;20022;-60
2023/01/15 03:04:14;;;;;;;11.38;2.20;;;6.30;99.90;;;;;;7364212;19;20010;-62
2023/01/15 03:07:03;;;;;;;16.13;2.72;;;6.30;99.90;;;;;;7363357;19;20517;-62
2023/01/15 03:09:33;;;;;;;12.65;2.17;;;6.30;99.90;;;;;;7361797;19;20106;-62
2023/01/15 03:12:16;;;;;;;10.32;2.78;;;6.30;99.90;;;;;;7363384;19;20033;-62
2023/01/15 03:15:01;;;;;;;11.32;2.58;;;6.30;99.90;;;;;;7364768;19;20018;-63
2023/01/15 03:17:46;;;;;;;12.93;2.60;;;6.30;99.90;;;;;;7363905;19;20491;-62
2023/01/15 03:20:24;;;;;;;11.27;2.30;;;6.40;99.90;;;;;;7363277;19;20029;-63
2023/01/15 03:22:55;;;;;;;13.25;2.58;;;6.50;99.90;;;;;;7362238;19;20026;-63
2023/01/15 03:25:26;;;;;;;12.10;2.47;;;6.50;99.90;;;;;;7358742;19;20021;-62
2023/01/15 03:28:00;;;;;;;12.27;2.40;;;6.50;99.90;;;;;;7363591;19;20415;-63
2023/01/15 03:30:28;;;;;;;9.52;2.58;;;6.50;99.90;;;;;;7363377;19;20018;-62
2023/01/15 03:32:55;;;;;;;14.70;2.65;;;6.50;99.90;;;;;;7366862;19;20890;-63
2023/01/15 03:35:41;;;;;;;17.42;3.13;;;6.50;99.90;;;;;;7359337;19;20603;-62
2023/01/15 03:38:10;;;;;;;15.93;2.58;;;6.50;99.90;;;;;;7361792;19;20025;-60
2023/01/15 03:40:46;;;;;;;12.32;2.78;;;6.50;99.90;;;;;;7362024;19;20477;-61
2023/01/15 03:43:49;;;;;;;14.50;2.75;;;6.40;99.90;;;;;;7363343;19;20014;-60
2023/01/15 03:47:01;;;;;;;12.88;2.95;;;6.50;99.90;;;;;;7358373;19;20031;-60
2023/01/15 03:49:40;;;;;;;14.95;2.90;;;6.50;99.90;;;;;;7359573;19;20466;-60
2023/01/15 03:52:30;;;;;;;10.05;2.22;;;6.50;99.90;;;;;;7362816;19;20470;-63
2023/01/15 03:55:10;;;;;;;11.95;2.08;;;6.50;99.90;;;;;;7358998;19;20477;-63
2023/01/15 03:57:56;;;;;;;14.68;4.47;;;6.40;99.90;;;;;;7361233;19;20110;-63
2023/01/15 04:00:31;;;;;;;10.75;2.10;;;6.40;99.90;;;;;;7361833;19;20018;-62
2023/01/15 04:03:02;;;;;;;13.43;2.40;;;6.50;99.90;;;;;;7359487;19;20034;-63
2023/01/15 04:05:33;;;;;;;9.93;2.45;;;6.50;99.90;;;;;;7363472;19;20038;-63
2023/01/15 04:08:01;;;;;;;13.57;2.63;;;6.60;99.90;;;;;;7360457;19;20363;-62
2023/01/15 04:10:30;;;;;;;13.75;2.67;;;6.60;99.90;;;;;;7365929;19;20018;-60
2023/01/15 04:12:58;;;;;;;13.43;3.10;;;6.60;99.90;;;;;;7364499;19;20045;-60
2023/01/15 04:15:24;;;;;;;16.83;2.65;;;6.60;99.90;;;;;;7358521;19;20026;-60
2023/01/15 04:17:51;;;;;;;12.05;2.75;;;6.60;99.90;;;;;;7365844;19;20026;-60
2023/01/15 04:20:19;;;;;;;14.45;2.25;;;6.60;99.90;;;;;;7362415;19;20019;-60
2023/01/15 04:22:46;;;;;;;10.52;2.60;;;6.60;99.90;;;;;;7365449;19;20841;-60
2023/01/15 04:25:12;;;;;;;14.27;2.75;;;6.60;99.90;;;;;;7360054;19;20030;-60
2023/01/15 04:27:39;;;;;;;14.50;2.97;;;6.60;99.90;;;;;;7363788;19;20038;-61
2023/01/15 04:30:06;;;;;;;14.55;2.58;;;6.60;99.90;;;;;;7360732;19;20496;-60
2023/01/15 04:32:32;;;;;;;9.63;2.30;;;6.60;99.90;;;;;;7361158;19;21054;-60
2023/01/15 04:34:59;;;;;;;10.40;2.63;;;6.60;99.90;;;;;;7363790;19;20024;-60
2023/01/15 04:37:25;;;;;;;19.33;3.08;;;6.60;99.90;;;;;;7360362;19;20034;-60
2023/01/15 04:39:52;;;;;;;15.80;2.78;;;6.60;99.90;;;;;;7365528;19;20022;-60
2023/01/15 04:45:03;;;;;;;12.05;2.42;;;6.60;99.90;;;;;;7362502;19;20026;-60
2023/01/15 04:47:36;;;;;;;17.38;3.08;;;6.60;99.90;;;;;;7365493;19;20703;-60
2023/01/15 04:50:02;;;;;;;12.40;2.60;;;6.70;99.90;;;;;;7363687;19;20030;-60
2023/01/15 04:52:29;;;;;;;17.10;2.83;;;6.70;99.90;;;;;;7369161;19;20572;-60
2023/01/15 04:54:55;;;;;;;11.82;2.40;;;6.60;99.90;;;;;;7368000;19;20461;-60
2023/01/15 04:57:23;;;;;;;11.77;2.47;;;6.70;99.90;;;;;;7365939;19;20379;-61
2023/01/15 04:59:50;;;;;;;10.90;2.25;;;6.70;99.90;;;;;;7365921;19;20018;-60
2023/01/15 05:02:16;;;;;;;11.10;2.67;;;6.70;99.90;;;;;;7362249;19;20033;-60
2023/01/15 05:04:45;;;;;;;11.35;2.40;;;6.60;99.90;;;;;;7368730;19;20497;-61
2023/01/15 05:07:11;;;;;;;12.18;2.45;;;6.60;99.90;;;;;;7363216;19;20018;-60
2023/01/15 05:09:37;;;;;;;8.93;2.28;;;6.60;99.90;;;;;;7362760;19;20018;-60
2023/01/15 05:12:04;;;;;;;20.25;3.15;;;6.50;99.90;;;;;;7365189;19;20074;-60
2023/01/15 05:14:31;;;;;;;13.25;2.60;;;6.50;99.90;;;;;;7364252;19;20022;-60
2023/01/15 05:16:57;;;;;;;12.82;2.63;;;6.50;99.90;;;;;;7363499;19;20014;-60
2023/01/15 05:19:23;;;;;;;13.48;2.88;;;6.50;99.90;;;;;;7363603;19;20123;-60
2023/01/15 05:21:50;;;;;;;10.65;2.10;;;6.50;99.90;;;;;;7366536;19;20023;-60
2023/01/15 05:24:17;;;;;;;16.58;3.13;;;6.40;99.90;;;;;;7363809;19;20460;-61
2023/01/15 05:26:47;;;;;;;11.63;2.47;;;6.40;99.90;;;;;;7362577;19;20028;-60
2023/01/15 05:29:17;;;;;;;14.25;2.70;;;6.40;99.90;;;;;;7359081;19;20105;-60
2023/01/15 05:31:44;;;;;;;13.77;2.97;;;6.40;99.90;;;;;;7364681;19;20018;-61
2023/01/15 05:34:30;;;;;;;16.08;2.90;;;6.40;99.90;;;;;;7369307;19;20014;-60
2023/01/15 05:37:16;;;;;;;14.70;2.72;;;6.40;99.90;;;;;;7367718;19;20865;-60
2023/01/15 05:40:03;;;;;;;11.80;2.65;;;6.30;99.90;;;;;;7363923;19;20019;-60
2023/01/15 05:42:29;;;;;;;11.80;3.20;;;6.30;99.90;;;;;;7367470;19;20101;-60
2023/01/15 05:44:55;;;;;;;14.35;2.85;;;6.40;99.90;;;;;;7367917;19;20014;-60
2023/01/15 05:47:22;;;;;;;14.80;2.92;;;6.40;99.90;;;;;;7366507;19;20038;-60
2023/01/15 05:49:53;;;;;;;13.20;2.60;;;6.40;99.90;;;;;;7367324;19;20418;-60
2023/01/15 05:52:20;;;;;;;11.80;2.70;;;6.30;99.90;;;;;;7363169;19;20018;-60
2023/01/15 05:54:49;;;;;;;13.10;2.00;;;6.30;99.90;;;;;;7366036;19;20079;-63
2023/01/15 05:57:15;;;;;;;12.68;2.53;;;6.30;99.90;;;;;;7368177;19;20010;-60
2023/01/15 05:59:42;;;;;;;15.93;2.70;;;6.30;99.90;;;;;;7366322;19;20019;-60
2023/01/15 06:02:09;;;;;;;11.13;2.47;;;6.30;99.90;;;;;;7369220;19;20418;-61
2023/01/15 06:04:35;;;;;;;10.60;2.22;;;6.20;99.90;;;;;;7369962;19;20816;-60
2023/01/15 06:07:01;;;;;;;12.65;2.35;;;6.10;99.90;;;;;;7366830;19;20010;-60
2023/01/15 06:09:28;;;;;;;11.45;2.20;;;6.10;99.90;;;;;;7365355;19;20480;-60
2023/01/15 06:11:55;;;;;;;13.77;2.13;;;6.10;99.90;;;;;;7367183;19;20007;-60
2023/01/15 06:14:22;;;;;;;13.05;2.17;;;6.20;99.90;;;;;;7366053;19;20377;-61
2023/01/15 06:16:48;;;;;;;11.27;2.50;;;6.20;99.90;;;;;;7365487;19;20529;-60
2023/01/15 06:19:15;;;;;;;18.10;2.58;;;6.20;99.90;;;;;;7364411;19;20467;-60
2023/01/15 06:21:42;;;;;;;12.85;2.50;;;6.20;99.90;;;;;;7366879;19;20041;-60
2023/01/15 06:24:08;;;;;;;15.93;3.47;;;6.10;99.90;;;;;;7364031;19;20021;-60
2023/01/15 06:26:38;;;;;;;9.82;2.38;;;6.10;99.90;;;;;;7366017;19;20122;-60
2023/01/15 06:29:04;;;;;;;8.48;1.98;;;6.00;99.90;;;;;;7360330;19;20027;-60
2023/01/15 06:31:31;;;;;;;11.05;2.10;;;6.10;99.90;;;;;;7364784;19;20014;-60
2023/01/15 06:33:57;;;;;;;11.20;2.42;;;6.00;99.90;;;;;;7360238;19;20378;-62
2023/01/15 06:36:25;;;;;;;16.33;2.88;;;5.90;99.90;;;;;;7363634;19;20595;-61
2023/01/15 06:38:52;;;;;;;9.10;2.08;;;5.90;99.90;;;;;;7359285;19;20473;-60
2023/01/15 06:47:19;;;;;;;9.35;2.20;;;5.90;99.90;;;;;;7363207;19;20014;-60
2023/01/15 06:49:46;;;;;;;11.07;2.30;;;5.80;99.90;;;;;;7363526;19;20042;-61
2023/01/15 06:52:12;;;;;;;15.85;2.97;;;5.80;99.90;;;;;;7359854;19;20022;-61
2023/01/15 06:54:39;;;;;;;11.38;2.45;;;5.70;99.90;;;;;;7364189;19;20046;-61
2023/01/15 06:57:05;;;;;;;8.98;2.33;;;5.80;99.90;;;;;;7362386;19;20384;-61
2023/01/15 06:59:32;;;;;;;11.57;2.60;;;5.70;99.90;;;;;;7361423;19;20528;-60
2023/01/15 07:01:59;;;;;;;10.90;2.38;;;5.80;99.90;;;;;;7363900;19;20022;-60
2023/01/15 07:04:26;;;;;;;8.02;2.13;;;5.80;99.90;;;;;;7361052;19;20680;-64
2023/01/15 07:06:53;;;;;;;11.30;2.40;;;5.70;99.90;;;;;;7362476;19;20033;-60
2023/01/15 07:09:19;;;;;;;14.27;2.85;;;5.70;99.90;;;;;;7361698;19;20022;-64
2023/01/15 07:11:48;;;;;;;8.40;2.08;;;5.70;99.90;;;;;;7361044;19;20943;-61
2023/01/15 07:14:24;;;;;;;14.27;2.85;;;5.60;99.90;;;;;;7353557;19;20485;-61
2023/01/15 07:16:51;;;;;;;14.43;2.30;;;5.60;99.90;;;;;;7358539;19;20068;-61
2023/01/15 07:19:18;;;;;;;9.60;2.00;;;5.70;99.90;;;;;;7359201;19;20014;-60
2023/01/15 07:21:46;;;;;;;8.57;2.20;;;5.70;99.90;;;;;;7359547;19;20022;-60
2023/01/15 07:24:13;;;;;;;10.35;2.38;;;5.70;99.90;;;;;;7355176;19;20113;-63
2023/01/15 07:26:40;;;;;;;13.13;2.72;;;5.80;99.90;;;;;;7359780;19;20078;-64
2023/01/15 07:29:07;;;;;;;8.25;1.92;;;5.70;99.90;;;;;;7358855;19;20053;-62
2023/01/15 07:31:33;;;;;;;9.77;2.10;;;5.80;99.90;;;;;;7359504;19;20936;-62
2023/01/15 07:34:00;;;;;;;11.98;2.58;;;5.70;99.90;;;;;;7360489;19;20416;-62
2023/01/15 07:36:26;;;;;;;12.13;2.20;;;5.60;99.90;;;;;;7357610;19;20019;-60
2023/01/15 07:38:53;;;;;;;8.88;2.53;;;5.70;99.90;;;;;;7358581;19;20063;-60
2023/01/15 07:49:45;;;;;;;9.25;2.10;;;5.70;99.90;;;;;;7357513;19;20029;-60
2023/01/15 07:52:13;;;;;;;11.38;2.42;;;5.70;99.90;;;;;;7358672;19;20021;-63
2023/01/15 07:54:48;;;;;;;7.15;1.45;;;5.70;99.90;;;;;;7356706;19;20014;-63
2023/01/15 07:57:20;;;;;;;9.27;1.92;;;5.70;99.90;;;;;;7360973;19;20561;-63
2023/01/15 07:59:47;;;;;;;10.57;2.00;;;5.60;99.90;;;;;;7356178;19;20359;-63
2023/01/15 08:02:16;;;;;;;10.95;1.77;;;5.60;99.90;;;;;;7358159;19;20466;-63
2023/01/15 08:04:49;;;;;;;14.15;2.50;;;5.60;99.90;;;;;;7362020;19;20022;-63
2023/01/15 08:07:16;;;;;;;10.10;1.92;;;5.70;99.90;;;;;;7358101;19;20521;-63
2023/01/15 08:09:42;;;;;;;8.60;1.75;;;5.70;99.90;;;;;;7354880;19;20101;-63
2023/01/15 08:15:15;;;;;;;7.95;1.90;;;5.70;99.90;;;;;;7357274;19;20014;-63
2023/01/15 08:17:44;;;;;;;13.43;2.55;;;5.80;99.90;;;;;;7358597;19;20538;-63
2023/01/15 08:20:17;;;;;;;10.32;2.17;;;5.80;99.90;;;;;;7356373;19;20028;-63
2023/01/15 08:22:44;;;;;;;11.57;2.47;;;5.80;99.90;;;;;;7357634;19;20696;-60
2023/01/15 08:25:13;;;;;;;16.67;2.20;;;5.80;99.90;;;;;;7353875;19;20021;-63
2023/01/15 08:27:40;;;;;;;8.43;1.88;;;5.80;99.90;;;;;;7358024;19;20025;-63
2023/01/15 08:30:11;;;;;;;11.20;2.03;;;5.90;99.90;;;;;;7354174;19;20018;-60
2023/01/15 08:32:37;;;;;;;11.80;2.25;;;5.90;99.90;;;;;;7356075;19;20087;-60
2023/01/15 08:35:04;;;;;;;10.55;2.10;;;6.00;99.90;;;;;;7359727;19;21490;-60
2023/01/15 08:37:30;;;;;;;10.85;2.17;;;6.00;99.90;;;;;;7359924;19;20041;-60
2023/01/15 08:39:57;;;;;;;9.80;2.35;;;6.00;99.90;;;;;;7359241;19;20643;-61
2023/01/15 08:42:23;;;;;;;11.82;1.98;;;6.00;99.90;;;;;;7355031;19;20015;-61
2023/01/15 08:44:49;;;;;;;9.10;2.00;;;6.10;99.90;;;;;;7362182;19;20090;-60
2023/01/15 08:47:16;;;;;;;11.88;2.83;;;6.20;99.90;;;;;;7359025;19;20039;-60
2023/01/15 08:49:44;;;;;;;12.77;2.60;;;6.30;99.90;;;;;;7358135;19;20018;-63
2023/01/15 08:52:11;;;;;;;12.63;1.98;;;6.40;99.90;;;;;;7363077;19;20017;-63
2023/01/15 08:54:37;;;;;;;10.35;1.80;;;6.40;99.90;;;;;;7363019;19;20509;-60
2023/01/15 08:57:08;;;;;;;8.05;3.05;;;6.20;99.90;;;;;;7359159;19;20019;-63
2023/01/15 08:59:34;;;;;;;8.75;2.28;;;6.20;99.90;;;;;;7359200;19;20030;-60
2023/01/15 09:02:04;;;;;;;10.55;2.55;;;6.10;99.90;;;;;;7361371;19;20552;-61
2023/01/15 09:04:31;;;;;;;15.38;3.35;;;5.90;99.90;;;;;;7364652;19;20019;-59
2023/01/15 09:06:58;;;;;;;10.52;2.10;;;5.50;99.90;;;;;;7360251;19;20452;-59
2023/01/15 09:09:25;;;;;;;8.00;1.95;;;5.20;99.90;;;;;;7361381;19;20029;-59
2023/01/15 09:11:51;;;;;;;7.80;1.90;;;4.80;99.90;;;;;;7359692;19;20389;-59
2023/01/15 09:14:28;;;;;;;5.43;1.67;;;4.60;99.90;;;;;;7360989;19;20569;-62
2023/01/15 09:16:56;;;;;;;9.00;1.98;;;4.40;99.90;;;;;;7357969;19;20022;-62
2023/01/15 09:19:23;;;;;;;5.93;1.45;;;4.20;99.90;;;;;;7361332;19;20541;-62
2023/01/15 09:21:49;;;;;;;5.55;1.00;;;4.10;99.90;;;;;;7358833;19;20520;-63
2023/01/15 09:24:15;;;;;;;5.43;1.77;;;4.00;99.90;;;;;;7357553;19;20023;-62
2023/01/15 09:26:42;;;;;;;7.35;1.23;;;4.00;99.90;;;;;;7361486;19;20018;-63
2023/01/15 09:29:09;;;;;;;2.83;0.90;;;4.00;99.90;;;;;;7363928;19;20019;-62
2023/01/15 09:31:36;;;;;;;8.32;1.40;;;4.00;99.90;;;;;;7366828;19;20363;-63
2023/01/15 09:34:02;;;;;;;7.20;1.50;;;4.00;99.90;;;;;;7360393;19;20022;-62
2023/01/15 09:36:32;;;;;;;7.50;1.63;;;4.10;99.90;;;;;;7366013;19;20014;-59
2023/01/15 09:39:00;;;;;;;12.25;1.90;;;4.00;99.90;;;;;;7365827;19;20015;-59
2023/01/15 09:42:04;;;;;;;6.47;1.35;;;4.10;99.90;;;;;;7368165;19;20045;-59
2023/01/15 09:44:42;;;;;;;10.55;1.90;;;4.10;99.90;;;;;;7368636;19;20557;-59
2023/01/15 09:47:31;;;;;;;9.68;1.95;;;4.30;99.90;;;;;;7365299;19;20480;-59
2023/01/15 09:50:20;;;;;;;7.97;1.92;;;4.50;99.90;;;;;;7366975;19;20348;-59
2023/01/15 09:52:49;;;;;;;6.97;1.73;;;4.80;99.90;;;;;;7365158;19;20041;-59
2023/01/15 09:55:19;;;;;;;10.55;1.77;;;4.90;99.90;;;;;;7362764;19;20817;-59
2023/01/15 09:57:49;;;;;;;13.57;2.10;;;4.60;99.90;;;;;;7364993;19;20896;-60
2023/01/15 10:00:19;;;;;;;12.68;2.28;;;4.50;99.90;;;;;;7367365;19;20888;-60
2023/01/15 10:02:49;;;;;;;7.20;1.83;;;4.50;99.90;;;;;;7365201;19;20037;-60
2023/01/15 10:05:16;;;;;;;13.45;2.33;;;4.60;99.90;;;;;;7367923;19;20024;-59
2023/01/15 10:08:20;;;;;;;9.75;2.60;;;4.60;99.90;;;;;;7364517;19;20374;-59
2023/01/15 10:10:49;;;;;;;7.90;2.47;;;4.60;99.90;;;;;;7357610;19;20018;-59
2023/01/15 10:13:40;;;;;;;11.45;2.22;;;4.60;99.90;;;;;;7361226;19;20019;-59
2023/01/15 10:16:09;;;;;;;9.93;2.17;;;4.60;99.90;;;;;;7363172;19;20122;-59
2023/01/15 10:18:37;;;;;;;9.82;2.92;;;4.60;99.90;;;;;;7369685;19;20498;-59
2023/01/15 10:21:07;;;;;;;10.65;2.30;;;4.60;99.90;;;;;;7364918;19;20030;-59
2023/01/15 10:23:35;;;;;;;12.32;2.92;;;4.70;99.90;;;;;;7367419;19;21728;-59
2023/01/15 10:26:17;;;;;;;11.00;2.33;;;4.70;99.90;;;;;;7363200;19;20036;-61
2023/01/15 10:28:58;;;;;;;12.98;2.38;;;4.70;99.90;;;;;;7367009;19;20099;-60
2023/01/15 10:31:51;;;;;;;13.25;2.28;;;4.60;99.90;;;;;;7362503;19;20018;-58
2023/01/15 10:34:34;;;;;;;12.15;2.55;;;4.60;99.90;;;;;;7364731;19;20047;-59
2023/01/15 10:37:09;;;;;;;12.98;2.55;;;4.60;99.90;;;;;;7368274;19;20090;-59
2023/01/15 10:40:08;;;;;;;14.07;2.35;;;4.60;99.90;;;;;;7365492;19;20025;-59
2023/01/15 10:42:52;;;;;;;16.60;3.20;;;4.60;99.90;;;;;;7365283;19;20089;-59
2023/01/15 10:45:35;;;;;;;16.02;2.97;;;4.70;99.90;;;;;;7365772;19;20033;-59
2023/01/15 10:48:29;;;;;;;11.27;2.97;;;4.70;99.90;;;;;;7364598;19;20037;-59
2023/01/15 10:50:59;;;;;;;13.57;2.08;;;4.80;99.90;;;;;;7364694;19;20133;-59
2023/01/15 10:53:29;;;;;;;12.27;2.10;;;4.80;99.90;;;;;;7364580;19;20116;-59
2023/01/15 10:56:06;;;;;;;11.43;2.28;;;5.00;99.90;;;;;;7363989;19;20369;-62
2023/01/15 10:58:42;;;;;;;11.82;2.47;;;5.10;99.90;;;;;;7362713;19;20502;-59
2023/01/15 11:01:14;;;;;;;18.73;3.22;;;5.10;99.90;;;;;;7364979;19;20102;-60
2023/01/15 11:03:43;;;;;;;10.57;2.22;;;5.20;99.90;;;;;;7356923;19;20019;-59
2023/01/15 11:06:15;;;;;;;14.63;2.53;;;5.20;99.90;;;;;;7360590;19;20026;-60
2023/01/15 11:08:54;;;;;;;15.73;3.10;;;5.60;99.90;;;;;;7361082;19;20561;-59
2023/01/15 11:20:29;;;;;;;12.82;2.88;;;5.70;99.90;;;;;;7356865;19;20692;-59
2023/01/15 11:23:04;;;;;;;14.07;2.40;;;5.70;99.90;;;;;;7363663;19;20480;-63
2023/01/15 11:25:32;;;;;;;11.27;3.15;;;5.80;99.90;;;;;;7362715;19;20010;-62
2023/01/15 11:28:05;;;;;;;11.45;2.17;;;5.80;99.90;;;;;;7361253;19;20022;-62
2023/01/15 11:30:38;;;;;;;15.95;2.40;;;5.80;99.90;;;;;;7357972;19;20571;-62
2023/01/15 11:33:20;;;;;;;15.43;2.70;;;5.70;99.90;;;;;;7362114;19;20019;-63
2023/01/15 11:35:57;;;;;;;15.15;3.08;;;6.00;99.90;;;;;;7360511;19;20555;-63
2023/01/15 11:38:26;;;;;;;14.73;3.22;;;6.10;99.90;;;;;;7356650;19;20014;-63
2023/01/15 11:40:58;;;;;;;10.75;2.50;;;6.30;99.90;;;;;;7354369;19;20610;-65
2023/01/15 11:52:07;;;;;;;14.63;2.50;;;6.80;99.90;;;;;;7358983;19;20036;-64
2023/01/15 11:54:41;;;;;;;14.10;3.60;;;6.80;99.90;;;;;;7353966;19;20022;-64
2023/01/15 11:57:09;;;;;;;19.10;2.92;;;6.50;99.90;;;;;;7357731;19;20018;-65
2023/01/15 11:59:36;;;;;;;10.10;2.08;;;6.90;99.90;;;;;;7357674;19;20031;-64
2023/01/15 12:02:59;;;;;;;10.15;2.25;;;6.80;99.90;;;;;;7354949;19;20325;-64
2023/01/15 12:05:26;;;;;;;12.15;3.47;;;6.80;99.90;;;;;;7357680;19;20039;-64
2023/01/15 12:07:56;;;;;;;12.05;2.30;;;6.50;99.90;;;;;;7356375;19;20053;-64
2023/01/15 12:11:04;;;;;;;18.60;2.95;;;6.70;99.90;;;;;;7355968;19;20533;-64
2023/01/15 12:13:51;;;;;;;11.65;2.20;;;6.90;99.90;;;;;;7355604;19;20533;-64
2023/01/15 12:16:43;;;;;;;14.65;3.25;;;6.60;99.90;;;;;;7356574;19;20046;-64
2023/01/15 12:19:41;;;;;;;11.27;2.40;;;6.60;99.90;;;;;;7353620;19;20071;-64
2023/01/15 12:22:34;;;;;;;12.63;2.95;;;6.90;99.90;;;;;;7358594;19;20409;-63
2023/01/15 12:25:30;;;;;;;14.30;3.55;;;6.80;99.90;;;;;;7357500;19;20509;-64
2023/01/15 12:28:16;;;;;;;14.82;3.05;;;6.50;99.90;;;;;;7347349;19;20029;-64
2023/01/15 12:31:19;;;;;;;16.63;3.72;;;6.40;99.90;;;;;;7354335;19;20049;-64
2023/01/15 12:34:05;;;;;;;14.40;3.20;;;6.40;99.90;;;;;;7358740;19;20033;-64
2023/01/15 12:36:54;;;;;;;11.55;2.38;;;6.50;99.90;;;;;;7355527;19;20018;-64
2023/01/15 12:39:35;;;;;;;11.00;2.47;;;6.70;99.90;;;;;;7354055;19;20014;-64
2023/01/15 12:45:04;;;;;;;13.02;2.30;;;7.00;99.90;;;;;;7357559;19;20029;-64
2023/01/15 12:47:56;;;;;;;8.43;2.15;;;6.90;99.90;;;;;;7357648;19;20393;-64
2023/01/15 12:50:43;;;;;;;14.68;2.35;;;6.80;99.90;;;;;;7354568;19;20474;-63
2023/01/15 12:53:29;;;;;;;10.63;1.95;;;6.70;99.90;;;;;;7355904;19;20018;-64
2023/01/15 12:56:01;;;;;;;15.10;3.78;;;6.70;99.90;;;;;;7351421;19;20066;-65
2023/01/15 12:58:46;;;;;;;20.75;7.00;;;6.80;99.90;;;;;;7352224;19;20022;-64
2023/01/15 13:01:25;;;;;;;8.48;2.17;;;7.20;99.90;;;;;;7355862;19;20879;-66
2023/01/15 13:04:06;;;;;;;12.95;2.90;;;7.20;99.90;;;;;;7365880;19;20029;-65
2023/01/15 13:06:43;;;;;;;9.73;2.17;;;7.00;99.90;;;;;;7357861;19;20014;-65
2023/01/15 13:09:43;;;;;;;10.27;1.88;;;6.70;99.90;;;;;;7362518;19;20018;-64
2023/01/15 13:12:16;;;;;;;11.18;2.05;;;6.70;99.90;;;;;;7361527;19;20011;-65
2023/01/15 13:14:43;;;;;;;11.07;2.10;;;6.80;99.90;;;;;;7362114;19;20026;-64
2023/01/15 13:17:19;;;;;;;12.20;3.28;;;6.90;99.90;;;;;;7364505;19;20134;-65
2023/01/15 13:19:55;;;;;;;8.48;2.58;;;6.90;99.90;;;;;;7366079;19;20099;-65
2023/01/15 13:22:29;;;;;;;9.55;2.53;;;6.70;99.90;;;;;;7368069;19;20657;-65
2023/01/15 13:25:02;;;;;;;8.40;2.33;;;6.60;99.90;;;;;;7358235;19;20049;-65
2023/01/15 13:27:46;;;;;;;15.75;2.83;;;6.60;99.90;;;;;;7362253;19;20027;-65
2023/01/15 13:30:30;;;;;;;12.68;2.30;;;6.50;99.90;;;;;;7360712;19;20027;-65
2023/01/15 13:33:14;;;;;;;12.35;2.50;;;6.50;99.90;;;;;;7365421;19;20018;-65
2023/01/15 13:35:50;;;;;;;12.27;2.72;;;6.40;99.90;;;;;;7363838;19;21127;-66
2023/01/15 13:38:24;;;;;;;13.57;2.97;;;6.40;99.90;;;;;;7365074;19;20473;-65
2023/01/15 13:40:54;;;;;;;10.57;2.95;;;6.40;99.90;;;;;;7362078;19;20053;-65
2023/01/15 13:43:37;;;;;;;12.65;2.83;;;6.40;99.90;;;;;;7365216;19;20399;-60
2023/01/15 13:46:08;;;;;;;9.30;2.67;;;6.40;99.90;;;;;;7362648;19;20029;-61
2023/01/15 13:48:44;;;;;;;14.93;3.13;;;6.40;99.90;;;;;;7368818;19;20596;-60
2023/01/15 13:51:42;;;;;;;12.27;3.25;;;6.50;99.90;;;;;;7365080;19;20018;-60
2023/01/15 13:54:18;;;;;;;11.75;3.05;;;6.60;99.90;;;;;;7362190;19;20019;-60
2023/01/15 13:56:45;;;;;;;12.82;3.10;;;6.60;99.90;;;;;;7363008;19;20656;-61
2023/01/15 13:59:37;;;;;;;14.88;2.97;;;6.60;99.90;;;;;;7360202;19;20015;-61
2023/01/15 14:02:23;;;;;;;9.32;2.90;;;6.60;99.90;;;;;;7357604;19;20380;-64
2023/01/15 14:04:50;;;;;;;10.15;2.42;;;6.60;99.90;;;;;;7365837;19;20014;-61